Time;durP1;ratioP1;P1;durP2;ratioP2;P2;SDS_P1;SDS_P2;PMS_P1;PMS_P2;Temp;Humidity;BMP_temperature;BMP_pressure;BME280_temperature;BME280_humidity;BME280_pressure;Samples;Min_cycle;Max_cycle;Signal;HPM_P1;HPM_P2
2022/11/18 00:00:24;;;;;;;;;;;;;;;19.13;72.03;99797.28;7399605;19;1568;-72
2022/11/18 00:02:53;;;;;;;;;;;;;;;19.11;71.76;99802.78;7404726;19;1528;-69
2022/11/18 00:05:21;;;;;;;;;;;;;;;19.06;71.73;99800.59;7404671;19;1480;-69
2022/11/18 00:07:52;;;;;;;;;;;;;;;19.04;71.93;99791.88;7403003;19;1678;-69
2022/11/18 00:10:20;;;;;;;;;;;;;;;19.05;71.68;99788.19;7404360;19;1666;-69
2022/11/18 00:15:29;;;;;;;;;;;;;;;19.04;71.25;99789.19;7404385;19;1531;-69
2022/11/18 00:17:57;;;;;;;;;;;;;;;19.02;70.74;99784.97;7402561;19;1846;-69
2022/11/18 00:20:26;;;;;;;;;;;;;;;19.04;70.76;99791.03;7404104;19;1698;-69
2022/11/18 00:22:57;;;;;;;;;;;;;;;19.26;71.04;99792.31;7403858;19;1410;-69
2022/11/18 00:25:25;;;;;;;;;;;;;;;19.80;70.44;99795.53;7403706;19;1637;-69
2022/11/18 00:27:53;;;;;;;;;;;;;;;20.41;68.98;99795.25;7405547;19;943;-69
2022/11/18 00:30:22;;;;;;;;;;;;;;;20.69;68.20;99795.78;7401903;19;1643;-69
2022/11/18 00:32:50;;;;;;;;;;;;;;;20.64;68.71;99798.94;7402089;19;1633;-69
2022/11/18 00:35:18;;;;;;;;;;;;;;;20.90;67.72;99789.84;7402356;19;1465;-69
2022/11/18 00:37:47;;;;;;;;;;;;;;;20.84;68.06;99794.03;7403413;19;1861;-69
2022/11/18 00:40:18;;;;;;;;;;;;;;;20.98;67.75;99795.19;7404368;19;1059;-69
2022/11/18 00:42:53;;;;;;;;;;;;;;;20.61;68.12;99774.28;7401808;19;1713;-69
2022/11/18 00:45:21;;;;;;;;;;;;;;;20.14;68.83;99794.56;7402264;19;1582;-69
2022/11/18 00:47:50;;;;;;;;;;;;;;;19.85;69.33;99787.81;7401663;19;1327;-68
2022/11/18 00:50:18;;;;;;;;;;;;;;;19.72;69.26;99792.00;7400917;19;1461;-69
2022/11/18 00:52:46;;;;;;;;;;;;;;;19.64;69.40;99790.09;7401247;19;1472;-68
2022/11/18 00:55:17;;;;;;;;;;;;;;;19.60;69.20;99796.81;7404136;19;1563;-68
2022/11/18 00:57:46;;;;;;;;;;;;;;;19.48;69.54;99790.91;7401223;19;1854;-68
2022/11/18 01:00:15;;;;;;;;;;;;;;;19.45;69.52;99788.53;7406483;19;1508;-69
2022/11/18 01:02:43;;;;;;;;;;;;;;;19.44;69.33;99789.53;7404610;19;1521;-69
2022/11/18 01:05:12;;;;;;;;;;;;;;;19.37;69.06;99778.59;7410092;19;1442;-69
2022/11/18 01:07:40;;;;;;;;;;;;;;;19.35;68.95;99785.97;7411044;19;1770;-69
2022/11/18 01:10:08;;;;;;;;;;;;;;;19.32;69.02;99782.75;7409883;19;1607;-68
2022/11/18 01:15:20;;;;;;;;;;;;;;;19.25;68.74;99779.91;7411785;19;1590;-69
2022/11/18 01:17:48;;;;;;;;;;;;;;;19.26;68.83;99790.47;7409173;19;1860;-69
2022/11/18 01:20:17;;;;;;;;;;;;;;;19.24;68.86;99783.59;7406742;19;1453;-69
2022/11/18 01:22:45;;;;;;;;;;;;;;;19.19;68.86;99775.19;7409933;19;1367;-69
2022/11/18 01:25:14;;;;;;;;;;;;;;;19.20;68.56;99785.75;7410957;19;1397;-69
2022/11/18 01:27:44;;;;;;;;;;;;;;;19.18;68.46;99762.78;7408110;19;1741;-69
2022/11/18 01:30:15;;;;;;;;;;;;;;;19.16;68.28;99754.06;7409353;19;1328;-68
2022/11/18 01:32:44;;;;;;;;;;;;;;;19.16;68.39;99764.78;7408869;19;1255;-69
2022/11/18 01:35:12;;;;;;;;;;;;;;;19.12;68.54;99761.59;7408141;19;1376;-69
2022/11/18 01:37:41;;;;;;;;;;;;;;;19.10;68.50;99765.41;7409381;19;1378;-68
2022/11/18 01:40:10;;;;;;;;;;;;;;;19.11;67.76;99756.41;7407875;19;1869;-68
2022/11/18 01:42:38;;;;;;;;;;;;;;;19.07;68.35;99755.88;7409786;19;1460;-68
2022/11/18 01:45:17;;;;;;;;;;;;;;;19.05;68.15;99756.03;7409109;19;1323;-68
2022/11/18 01:47:47;;;;;;;;;;;;;;;19.05;68.02;99761.38;7408723;19;1287;-68
2022/11/18 01:50:17;;;;;;;;;;;;;;;19.07;67.48;99762.06;7408472;19;1373;-68
2022/11/18 01:52:45;;;;;;;;;;;;;;;19.20;68.38;99766.13;7406390;19;1670;-68
2022/11/18 01:55:15;;;;;;;;;;;;;;;19.83;67.41;99763.00;7409663;19;1279;-68
2022/11/18 01:57:45;;;;;;;;;;;;;;;20.48;65.80;99753.28;7407113;19;1523;-68
2022/11/18 02:00:17;;;;;;;;;;;;;;;20.71;65.49;99749.91;7405605;19;1856;-68
2022/11/18 02:02:46;;;;;;;;;;;;;;;20.73;65.33;99753.25;7409114;19;1618;-68
2022/11/18 02:05:15;;;;;;;;;;;;;;;20.78;65.25;99762.50;7407933;19;1302;-68
2022/11/18 02:07:44;;;;;;;;;;;;;;;20.91;65.08;99751.22;7407604;19;1389;-68
2022/11/18 02:10:19;;;;;;;;;;;;;;;20.97;64.78;99758.59;7407605;19;1004;-68
2022/11/18 02:12:47;;;;;;;;;;;;;;;20.58;65.00;99759.31;7406610;19;1489;-68
2022/11/18 02:15:20;;;;;;;;;;;;;;;20.13;65.78;99768.72;7407445;19;1485;-68
2022/11/18 02:17:55;;;;;;;;;;;;;;;19.86;66.22;99767.22;7408486;19;1622;-68
2022/11/18 02:20:27;;;;;;;;;;;;;;;19.73;66.38;99765.00;7404823;19;1849;-68
2022/11/18 02:23:07;;;;;;;;;;;;;;;19.65;66.16;99760.41;7407135;19;1397;-68
2022/11/18 02:25:44;;;;;;;;;;;;;;;19.59;66.39;99765.59;7408883;19;1122;-68
2022/11/18 02:28:24;;;;;;;;;;;;;;;19.51;66.57;99769.09;7407153;19;1654;-68
2022/11/18 02:30:59;;;;;;;;;;;;;;;19.45;66.42;99772.44;7407313;19;1468;-69
2022/11/18 02:33:30;;;;;;;;;;;;;;;19.41;66.77;99769.22;7406846;19;1721;-69
2022/11/18 02:36:03;;;;;;;;;;;;;;;19.40;66.71;99780.16;7407951;19;1279;-69
2022/11/18 02:38:36;;;;;;;;;;;;;;;19.37;66.29;99775.94;7406343;19;1868;-69
2022/11/18 02:41:06;;;;;;;;;;;;;;;19.33;66.15;99761.16;7404847;19;1650;-68
2022/11/18 02:43:35;;;;;;;;;;;;;;;19.31;66.24;99779.25;7406836;19;1646;-68
2022/11/18 02:46:10;;;;;;;;;;;;;;;19.28;66.28;99769.69;7407359;19;1464;-68
2022/11/18 02:48:40;;;;;;;;;;;;;;;19.27;65.82;99785.94;7406925;19;1430;-68
2022/11/18 02:51:10;;;;;;;;;;;;;;;19.24;66.25;99776.41;7404671;19;1516;-68
2022/11/18 02:53:39;;;;;;;;;;;;;;;19.21;66.06;99765.97;7405366;19;1310;-68
2022/11/18 02:56:08;;;;;;;;;;;;;;;19.20;66.03;99763.44;7406089;19;1397;-68
2022/11/18 02:58:37;;;;;;;;;;;;;;;19.18;66.04;99771.69;7406167;19;1844;-68
2022/11/18 03:01:08;;;;;;;;;;;;;;;19.11;66.41;99757.22;7401949;19;1367;-68
2022/11/18 03:03:37;;;;;;;;;;;;;;;19.16;66.24;99762.97;7405590;19;1288;-68
2022/11/18 03:06:10;;;;;;;;;;;;;;;19.11;66.26;99756.41;7406927;19;1607;-68
2022/11/18 03:08:40;;;;;;;;;;;;;;;19.12;65.80;99766.09;7407302;19;1615;-68
2022/11/18 03:11:13;;;;;;;;;;;;;;;19.12;65.84;99774.13;7407583;19;1354;-68
2022/11/18 03:13:45;;;;;;;;;;;;;;;19.11;65.93;99762.59;7405923;19;1411;-68
2022/11/18 03:16:19;;;;;;;;;;;;;;;19.03;65.86;99763.38;7405779;19;1450;-68
2022/11/18 03:18:52;;;;;;;;;;;;;;;19.11;65.55;99777.84;7406213;19;1857;-68
2022/11/18 03:21:25;;;;;;;;;;;;;;;19.11;65.81;99780.50;7405183;19;1469;-67
2022/11/18 03:23:56;;;;;;;;;;;;;;;19.56;65.76;99766.78;7405660;19;1572;-68
2022/11/18 03:26:27;;;;;;;;;;;;;;;20.23;64.27;99773.94;7405982;19;1311;-68
2022/11/18 03:28:58;;;;;;;;;;;;;;;20.85;63.08;99781.47;7405931;19;1455;-68
2022/11/18 03:31:31;;;;;;;;;;;;;;;20.79;63.17;99774.06;7403616;19;1632;-68
2022/11/18 03:34:01;;;;;;;;;;;;;;;20.91;62.87;99761.97;7405891;19;1707;-68
2022/11/18 03:36:31;;;;;;;;;;;;;;;21.02;62.72;99774.19;7406120;19;1386;-68
2022/11/18 03:39:00;;;;;;;;;;;;;;;21.12;62.48;99765.94;7404798;19;1848;-68
2022/11/18 03:41:31;;;;;;;;;;;;;;;20.94;62.60;99761.59;7405911;19;1079;-68
2022/11/18 03:44:08;;;;;;;;;;;;;;;20.39;63.40;99767.72;7405439;19;1774;-68
2022/11/18 03:46:41;;;;;;;;;;;;;;;20.00;64.12;99769.25;7405251;19;1458;-68
2022/11/18 03:49:11;;;;;;;;;;;;;;;19.84;64.77;99775.41;7405688;19;1758;-68
2022/11/18 03:51:43;;;;;;;;;;;;;;;19.71;64.35;99775.06;7403303;19;1594;-68
2022/11/18 03:54:15;;;;;;;;;;;;;;;19.64;64.27;99757.91;7405303;19;1347;-68
2022/11/18 03:56:45;;;;;;;;;;;;;;;19.57;64.82;99763.09;7405665;19;1378;-68
2022/11/18 03:59:15;;;;;;;;;;;;;;;19.50;64.61;99779.97;7404324;19;1845;-69
2022/11/18 04:01:48;;;;;;;;;;;;;;;19.44;64.58;99758.19;7403608;19;1454;-68
2022/11/18 04:04:17;;;;;;;;;;;;;;;19.32;65.57;99774.72;7404850;19;1678;-68
2022/11/18 04:06:48;;;;;;;;;;;;;;;19.15;66.86;99781.88;7403977;19;1466;-68
2022/11/18 04:09:21;;;;;;;;;;;;;;;19.02;67.47;99772.44;7404045;19;1496;-68
2022/11/18 04:12:04;;;;;;;;;;;;;;;18.95;67.99;99774.06;7405279;19;1641;-68
2022/11/18 04:14:33;;;;;;;;;;;;;;;18.90;68.08;99776.41;7405311;19;1370;-68
2022/11/18 04:17:07;;;;;;;;;;;;;;;18.87;68.46;99776.69;7404439;19;1358;-68
2022/11/18 04:19:35;;;;;;;;;;;;;;;18.86;68.78;99772.31;7404459;19;1858;-68
2022/11/18 04:22:04;;;;;;;;;;;;;;;18.84;68.69;99777.00;7401974;19;1639;-68
2022/11/18 04:24:32;;;;;;;;;;;;;;;18.80;68.79;99784.53;7405106;19;1275;-68
2022/11/18 04:27:01;;;;;;;;;;;;;;;18.77;69.40;99778.63;7402845;19;1693;-68
2022/11/18 04:29:29;;;;;;;;;;;;;;;18.76;69.45;99791.19;7404007;19;1359;-68
2022/11/18 04:31:58;;;;;;;;;;;;;;;18.72;69.79;99783.59;7403667;19;1430;-68
2022/11/18 04:34:29;;;;;;;;;;;;;;;18.77;69.83;99797.38;7410545;19;1353;-68
2022/11/18 04:36:58;;;;;;;;;;;;;;;18.71;69.97;99789.97;7411978;19;1545;-68
2022/11/18 04:39:26;;;;;;;;;;;;;;;18.65;69.81;99800.31;7410254;19;1844;-68
2022/11/18 04:41:57;;;;;;;;;;;;;;;18.67;70.40;99803.66;7408745;19;1504;-68
2022/11/18 04:44:26;;;;;;;;;;;;;;;19.17;69.08;99801.31;7411473;19;1444;-68
2022/11/18 04:46:55;;;;;;;;;;;;;;;19.40;68.65;99805.09;7411673;19;1401;-68
2022/11/18 04:49:24;;;;;;;;;;;;;;;19.74;68.34;99809.59;7411242;19;1705;-69
2022/11/18 04:51:55;;;;;;;;;;;;;;;20.17;66.97;99788.84;7409930;19;1477;-68
2022/11/18 04:54:24;;;;;;;;;;;;;;;20.52;66.28;99770.75;7410943;19;1563;-68
2022/11/18 04:56:53;;;;;;;;;;;;;;;20.37;66.75;99796.59;7411308;19;1546;-68
2022/11/18 04:59:22;;;;;;;;;;;;;;;20.26;66.96;99795.91;7410401;19;1850;-68
2022/11/18 05:01:51;;;;;;;;;;;;;;;20.03;68.27;99794.88;7285925;19;13783;-68
2022/11/18 05:04:20;;;;;;;;;;;;;;;19.77;68.54;99795.84;7406862;19;1487;-68
2022/11/18 05:06:48;;;;;;;;;;;;;;;19.54;68.97;99800.13;7408527;19;1687;-68
2022/11/18 05:09:20;;;;;;;;;;;;;;;19.36;69.19;99819.84;7408276;19;1517;-68
2022/11/18 05:14:29;;;;;;;;;;;;;;;19.16;69.67;99802.28;7407442;19;1437;-68
2022/11/18 05:16:59;;;;;;;;;;;;;;;19.07;70.01;99807.63;7404246;19;1397;-68
2022/11/18 05:19:27;;;;;;;;;;;;;;;19.00;70.22;99797.69;7406414;19;1854;-68
2022/11/18 05:21:56;;;;;;;;;;;;;;;18.97;70.31;99798.03;7408758;19;1774;-68
2022/11/18 05:24:26;;;;;;;;;;;;;;;18.88;70.24;99789.13;7409001;19;1701;-68
2022/11/18 05:26:55;;;;;;;;;;;;;;;18.86;70.99;99799.13;7408255;19;1410;-68
2022/11/18 05:29:24;;;;;;;;;;;;;;;18.85;70.57;99808.16;7407290;19;1463;-66
2022/11/18 05:31:52;;;;;;;;;;;;;;;18.81;70.58;99790.72;7408670;19;1040;-68
2022/11/18 05:34:21;;;;;;;;;;;;;;;18.85;70.67;99795.59;7408945;19;1489;-67
2022/11/18 05:36:49;;;;;;;;;;;;;;;18.92;70.32;99785.13;7399617;19;1638;-66
2022/11/18 05:39:18;;;;;;;;;;;;;;;18.93;70.99;99808.22;7405579;19;1864;-66
2022/11/18 05:44:29;;;;;;;;;;;;;;;18.87;71.44;99807.00;7341119;19;12568;-67
2022/11/18 05:46:59;;;;;;;;;;;;;;;18.95;70.97;99794.66;7408245;19;1071;-67
2022/11/18 05:49:27;;;;;;;;;;;;;;;19.00;71.03;99797.69;7407928;19;1374;-66
2022/11/18 05:51:55;;;;;;;;;;;;;;;18.98;71.70;99803.22;7406748;19;1719;-66
2022/11/18 05:54:24;;;;;;;;;;;;;;;19.02;71.34;99793.88;7407840;19;1654;-66
2022/11/18 05:56:55;;;;;;;;;;;;;;;19.14;71.02;99798.94;7404994;19;1458;-66
2022/11/18 05:59:23;;;;;;;;;;;;;;;19.17;70.93;99798.63;7407974;19;1870;-66
2022/11/18 06:01:53;;;;;;;;;;;;;;;19.13;70.75;99786.56;7407083;19;1047;-66
2022/11/18 06:04:24;;;;;;;;;;;;;;;19.12;71.05;99807.16;7408322;19;1765;-67
2022/11/18 06:06:54;;;;;;;;;;;;;;;19.15;70.91;99819.41;7408020;19;1674;-66
2022/11/18 06:09:25;;;;;;;;;;;;;;;19.17;70.85;99825.44;7407338;19;1461;-67
2022/11/18 06:11:58;;;;;;;;;;;;;;;19.20;70.38;99823.28;7405988;19;1472;-66
2022/11/18 06:14:29;;;;;;;;;;;;;;;19.68;69.86;99811.06;7407323;19;1377;-66
2022/11/18 06:17:00;;;;;;;;;;;;;;;19.88;69.82;99818.88;7408457;19;1004;-68
2022/11/18 06:19:28;;;;;;;;;;;;;;;20.16;69.64;99791.72;7406192;19;1858;-66
2022/11/18 06:21:57;;;;;;;;;;;;;;;20.25;69.63;99810.38;7406512;19;1567;-68
2022/11/18 06:24:25;;;;;;;;;;;;;;;20.48;69.12;99806.16;7407118;19;1310;-68
2022/11/18 06:26:54;;;;;;;;;;;;;;;20.51;68.81;99808.50;7407205;19;1544;-68
2022/11/18 06:29:25;;;;;;;;;;;;;;;20.48;69.24;99785.50;7407132;19;1477;-66
2022/11/18 06:31:53;;;;;;;;;;;;;;;20.45;69.17;99810.00;7406647;19;1394;-68
2022/11/18 06:34:22;;;;;;;;;;;;;;;20.24;69.47;99808.69;7407097;19;1776;-67
2022/11/18 06:36:50;;;;;;;;;;;;;;;20.12;70.09;99810.00;7406927;19;1697;-69
2022/11/18 06:39:18;;;;;;;;;;;;;;;19.91;70.39;99807.78;7407168;19;1728;-67
2022/11/18 06:41:46;;;;;;;;;;;;;;;19.80;70.66;99819.69;7404611;19;1861;-68
2022/11/18 06:44:13;;;;;;;;;;;;;;;19.68;71.03;99812.91;7407496;19;1365;-67
2022/11/18 06:47:00;;;;;;;;;;;;;;;19.64;71.30;99804.34;7403880;19;1690;-68
2022/11/18 06:49:29;;;;;;;;;;;;;;;19.52;71.40;99791.38;7406010;19;1370;-69
2022/11/18 06:51:57;;;;;;;;;;;;;;;19.54;71.60;99795.59;7405291;19;1791;-67
2022/11/18 06:54:26;;;;;;;;;;;;;;;19.55;71.14;99788.38;7404882;19;1772;-68
2022/11/18 06:56:54;;;;;;;;;;;;;;;19.59;70.92;99792.44;7401141;19;1406;-65
2022/11/18 06:59:23;;;;;;;;;;;;;;;19.57;71.09;99781.84;7406183;19;1389;-65
2022/11/18 07:01:55;;;;;;;;;;;;;;;19.62;71.02;99792.13;7403141;19;1843;-66
2022/11/18 07:04:24;;;;;;;;;;;;;;;19.57;71.50;99779.16;7405921;19;1138;-66
2022/11/18 07:06:52;;;;;;;;;;;;;;;19.54;71.60;99795.59;7406061;19;1477;-66
2022/11/18 07:09:20;;;;;;;;;;;;;;;19.52;72.37;99791.38;7405478;19;1777;-70
2022/11/18 07:11:49;;;;;;;;;;;;;;;19.64;72.01;99795.47;7406043;19;1374;-65
2022/11/18 07:14:17;;;;;;;;;;;;;;;19.73;71.87;99778.41;7406736;19;1281;-65
2022/11/18 07:16:45;;;;;;;;;;;;;;;19.74;72.17;99772.06;7407031;19;1276;-70
2022/11/18 07:19:16;;;;;;;;;;;;;;;19.72;72.43;99787.47;7405474;19;1691;-69
2022/11/18 07:21:45;;;;;;;;;;;;;;;19.80;72.50;99790.16;7404574;19;1853;-72
2022/11/18 07:24:14;;;;;;;;;;;;;;;19.78;72.81;99781.44;7404218;19;1457;-62
2022/11/18 07:26:42;;;;;;;;;;;;;;;19.63;73.73;99788.41;7405532;19;1398;-65
2022/11/18 07:29:11;;;;;;;;;;;;;;;19.66;72.94;99804.19;7405478;19;1334;-68
2022/11/18 07:31:40;;;;;;;;;;;;;;;19.63;72.58;99783.06;7402431;19;1826;-73
2022/11/18 07:34:08;;;;;;;;;;;;;;;19.65;72.81;99806.00;7404118;19;1468;-66
2022/11/18 07:36:39;;;;;;;;;;;;;;;19.61;72.82;99801.16;7404571;19;1663;-66
2022/11/18 07:39:10;;;;;;;;;;;;;;;19.55;72.99;99801.81;7403779;19;1360;-74
2022/11/18 07:41:40;;;;;;;;;;;;;;;19.57;73.19;99802.47;7404658;19;1865;-67
2022/11/18 07:44:09;;;;;;;;;;;;;;;19.56;73.06;99798.13;7405548;19;1171;-68
2022/11/18 07:46:38;;;;;;;;;;;;;;;19.55;73.31;99809.84;7404368;19;1732;-67
2022/11/18 07:49:07;;;;;;;;;;;;;;;19.52;73.54;99799.44;7403562;19;1628;-69
2022/11/18 07:51:36;;;;;;;;;;;;;;;19.52;73.61;99807.47;7400498;19;1429;-69
2022/11/18 07:54:11;;;;;;;;;;;;;;;19.48;73.53;99797.09;7400917;19;1286;-70
2022/11/18 07:56:39;;;;;;;;;;;;;;;19.48;73.42;99804.31;7404396;19;1369;-70
2022/11/18 07:59:07;;;;;;;;;;;;;;;19.46;73.97;99787.53;7402197;19;1429;-70
2022/11/18 08:01:36;;;;;;;;;;;;;;;19.50;73.86;99798.75;7401282;19;1858;-70
2022/11/18 08:04:08;;;;;;;;;;;;;;;19.65;73.58;99791.78;7403392;19;1740;-68
2022/11/18 08:06:38;;;;;;;;;;;;;;;19.75;73.57;99802.38;7403151;19;1718;-71
2022/11/18 08:09:07;;;;;;;;;;;;;;;19.65;73.90;99791.78;7399844;19;1263;-70
2022/11/18 08:11:39;;;;;;;;;;;;;;;19.76;73.60;99785.31;7401954;19;1389;-69
2022/11/18 08:14:07;;;;;;;;;;;;;;;19.71;73.70;99779.56;7404668;19;1460;-68
2022/11/18 08:16:36;;;;;;;;;;;;;;;19.68;73.87;99778.03;7402950;19;1734;-68
2022/11/18 08:19:04;;;;;;;;;;;;;;;19.80;73.17;99774.06;7399115;19;1595;-70
2022/11/18 08:21:32;;;;;;;;;;;;;;;19.81;73.75;99759.63;7400242;19;1855;-67
2022/11/18 08:24:01;;;;;;;;;;;;;;;19.90;74.09;99773.09;7400879;19;1797;-65
2022/11/18 08:26:29;;;;;;;;;;;;;;;19.96;73.21;99761.69;7402457;19;1627;-62
2022/11/18 08:29:00;;;;;;;;;;;;;;;19.96;73.19;99769.75;7402280;19;1698;-59
2022/11/18 08:31:30;;;;;;;;;;;;;;;19.98;73.86;99770.41;7399965;19;1536;-62
2022/11/18 08:33:58;;;;;;;;;;;;;;;19.95;73.58;99765.38;7403438;19;1270;-65
2022/11/18 08:36:28;;;;;;;;;;;;;;;19.86;74.07;99768.03;7404751;19;1294;-66
2022/11/18 08:38:57;;;;;;;;;;;;;;;19.89;74.16;99763.34;7402531;19;1681;-61
2022/11/18 08:41:28;;;;;;;;;;;;;;;19.84;74.21;99764.69;7402480;19;1865;-59
2022/11/18 08:43:56;;;;;;;;;;;;;;;19.85;74.25;99758.31;7403147;19;1752;-59
2022/11/18 08:46:27;;;;;;;;;;;;;;;19.76;74.55;99756.63;7401448;19;1586;-66
2022/11/18 08:48:56;;;;;;;;;;;;;;;19.75;74.92;99754.94;7401745;19;1355;-67
2022/11/18 08:51:24;;;;;;;;;;;;;;;19.67;74.77;99746.84;7398631;19;1393;-67
2022/11/18 08:53:52;;;;;;;;;;;;;;;19.68;74.74;99748.53;7401228;19;1707;-62
2022/11/18 08:56:22;;;;;;;;;;;;;;;19.63;75.10;99740.13;7396379;19;1408;-67
2022/11/18 08:58:50;;;;;;;;;;;;;;;19.64;75.07;99731.94;7398134;19;1635;-60
2022/11/18 09:01:18;;;;;;;;;;;;;;;19.60;75.15;99740.47;7397072;19;1857;-60
2022/11/18 09:03:49;;;;;;;;;;;;;;;19.60;75.00;99732.44;7402685;19;1271;-67
2022/11/18 09:06:19;;;;;;;;;;;;;;;19.58;75.14;99711.13;7402343;19;1267;-67
2022/11/18 09:08:47;;;;;;;;;;;;;;;19.74;74.85;99726.44;7401495;19;1597;-57
2022/11/18 09:11:17;;;;;;;;;;;;;;;19.72;75.16;99731.16;7402642;19;1742;-68
2022/11/18 09:13:45;;;;;;;;;;;;;;;19.71;75.24;99726.78;7401688;19;1446;-67
2022/11/18 09:16:14;;;;;;;;;;;;;;;19.75;74.86;99730.78;7401738;19;1370;-57
2022/11/18 09:18:42;;;;;;;;;;;;;;;19.71;75.14;99720.53;7402197;19;1556;-57
2022/11/18 09:21:16;;;;;;;;;;;;;;;19.70;75.31;99714.34;7408082;19;1866;-64
2022/11/18 09:23:44;;;;;;;;;;;;;;;19.76;75.39;99740.53;7409499;19;1529;-67
2022/11/18 09:26:13;;;;;;;;;;;;;;;19.75;74.75;99716.56;7409620;19;1303;-67
2022/11/18 09:28:42;;;;;;;;;;;;;;;19.72;74.67;99722.25;7409487;19;1402;-69
2022/11/18 09:31:11;;;;;;;;;;;;;;;19.84;74.74;99711.03;7407153;19;1473;-68
2022/11/18 09:33:40;;;;;;;;;;;;;;;19.81;75.40;99705.97;7407828;19;1274;-59
2022/11/18 09:36:16;;;;;;;;;;;;;;;19.92;75.65;99696.78;7407357;19;1382;-68
2022/11/18 09:38:44;;;;;;;;;;;;;;;20.15;75.23;99696.94;7408466;19;1421;-62
2022/11/18 09:41:22;;;;;;;;;;;;;;;20.19;76.17;99675.97;7409277;19;1861;-62
2022/11/18 09:43:55;;;;;;;;;;;;;;;20.18;75.73;99659.03;7406724;19;1384;-62
2022/11/18 09:46:28;;;;;;;;;;;;;;;20.96;73.82;99662.00;7407075;19;1615;-62
2022/11/18 09:49:14;;;;;;;;;;;;;;;20.46;75.15;99645.19;7406835;19;1414;-66
2022/11/18 09:51:46;;;;;;;;;;;;;;;20.16;75.79;99638.75;7405288;19;1532;-63
2022/11/18 09:54:19;;;;;;;;;;;;;;;20.11;76.12;99636.53;7407368;19;1504;-64
2022/11/18 09:56:48;;;;;;;;;;;;;;;20.01;77.18;99642.09;7408717;19;1232;-66
2022/11/18 09:59:18;;;;;;;;;;;;;;;19.93;77.75;99627.84;7408113;19;1275;-63
2022/11/18 10:01:47;;;;;;;;;;;;;;;19.88;78.36;99614.97;7405497;19;1847;-63
2022/11/18 10:04:17;;;;;;;;;;;;;;;19.78;78.22;99631.22;7404755;19;1524;-65
2022/11/18 10:06:48;;;;;;;;;;;;;;;19.80;77.69;99623.00;7407966;19;1622;-66
2022/11/18 10:09:27;;;;;;;;;;;;;;;19.83;77.59;99618.13;7407355;19;1495;-62
2022/11/18 10:12:04;;;;;;;;;;;;;;;19.79;77.26;99606.06;7408515;19;1322;-63
2022/11/18 10:14:41;;;;;;;;;;;;;;;19.84;77.05;99598.34;7407785;19;1764;-68
2022/11/18 10:17:14;;;;;;;;;;;;;;;19.77;76.78;99602.72;7403965;19;1698;-67
2022/11/18 10:19:45;;;;;;;;;;;;;;;19.75;75.97;99583.25;7404323;19;1226;-66
2022/11/18 10:22:20;;;;;;;;;;;;;;;19.71;76.11;99570.34;7406970;19;1854;-65
2022/11/18 10:24:52;;;;;;;;;;;;;;;19.75;75.75;99583.25;7408452;19;1361;-64
2022/11/18 10:27:21;;;;;;;;;;;;;;;19.76;75.94;99578.75;7406853;19;1411;-65
2022/11/18 10:29:53;;;;;;;;;;;;;;;19.76;75.73;99568.84;7407799;19;1534;-64
2022/11/18 10:32:22;;;;;;;;;;;;;;;19.80;75.40;99564.81;7404745;19;1188;-63
2022/11/18 10:34:51;;;;;;;;;;;;;;;19.74;75.29;99552.09;7407766;19;1261;-65
2022/11/18 10:37:26;;;;;;;;;;;;;;;19.78;74.77;99553.44;7407946;19;1619;-64
2022/11/18 10:39:56;;;;;;;;;;;;;;;19.85;74.81;99546.34;7405833;19;1621;-65
2022/11/18 10:42:28;;;;;;;;;;;;;;;19.94;74.79;99538.31;7405285;19;1857;-61
2022/11/18 10:44:57;;;;;;;;;;;;;;;19.94;74.84;99543.69;7406812;19;1559;-65
2022/11/18 10:47:29;;;;;;;;;;;;;;;19.98;74.51;99547.69;7406848;19;1647;-64
2022/11/18 10:49:59;;;;;;;;;;;;;;;20.00;74.59;99529.59;7406658;19;1956;-62
2022/11/18 10:52:31;;;;;;;;;;;;;;;20.07;74.49;99541.28;7405645;19;1434;-65
2022/11/18 10:55:21;;;;;;;;;;;;;;;20.16;74.63;99537.56;7408103;19;1527;-67
2022/11/18 10:57:50;;;;;;;;;;;;;;;20.24;75.26;99528.66;7405732;19;1806;-62
2022/11/18 11:00:36;;;;;;;;;;;;;;;20.21;75.49;99521.78;7405968;19;1388;-69
2022/11/18 11:03:17;;;;;;;;;;;;;;;20.13;75.01;99526.34;7402577;19;1864;-67
2022/11/18 11:05:45;;;;;;;;;;;;;;;20.09;75.36;99531.22;7402285;19;1730;-66
2022/11/18 11:08:23;;;;;;;;;;;;;;;20.07;76.01;99527.88;7404540;19;1384;-68
2022/11/18 11:10:56;;;;;;;;;;;;;;;20.02;76.82;99516.81;7404794;19;1416;-66
2022/11/18 11:13:25;;;;;;;;;;;;;;;20.08;77.05;99517.97;7404614;19;1332;-65
2022/11/18 11:15:55;;;;;;;;;;;;;;;20.09;76.88;99501.69;7403746;19;1254;-65
2022/11/18 11:21:05;;;;;;;;;;;;;;;20.11;78.20;99513.09;7406915;19;1852;-62
2022/11/18 11:23:37;;;;;;;;;;;;;;;20.09;77.66;99504.38;7404798;19;1364;-62
2022/11/18 11:26:10;;;;;;;;;;;;;;;20.12;78.51;99498.66;7404176;19;1555;-62
2022/11/18 11:28:45;;;;;;;;;;;;;;;20.17;77.86;99495.44;7405601;19;1535;-62
2022/11/18 11:31:18;;;;;;;;;;;;;;;20.21;77.60;99486.03;7403191;19;1412;-65
2022/11/18 11:33:54;;;;;;;;;;;;;;;20.31;79.18;99480.47;7403546;19;1495;-64
2022/11/18 11:36:37;;;;;;;;;;;;;;;20.40;78.52;99484.78;7404674;19;1299;-63
2022/11/18 11:39:20;;;;;;;;;;;;;;;20.45;77.62;99482.41;7405119;19;1572;-64
2022/11/18 11:41:52;;;;;;;;;;;;;;;20.43;77.45;99458.44;7403790;19;1858;-61
2022/11/18 11:44:28;;;;;;;;;;;;;;;20.41;77.90;99464.97;7402847;19;1686;-67
2022/11/18 11:49:50;;;;;;;;;;;;;;;20.36;78.26;99462.00;7406094;19;1505;-66
2022/11/18 11:52:22;;;;;;;;;;;;;;;20.25;78.35;99466.75;7402624;19;1528;-68
2022/11/18 11:55:00;;;;;;;;;;;;;;;20.26;77.70;99464.88;7405469;19;1460;-63
2022/11/18 11:57:34;;;;;;;;;;;;;;;20.12;78.02;99455.72;7401964;19;1760;-67
2022/11/18 12:00:04;;;;;;;;;;;;;;;20.09;78.11;99465.97;7403094;19;1772;-66
2022/11/18 12:02:46;;;;;;;;;;;;;;;20.03;78.26;99446.03;7401203;19;1870;-66
2022/11/18 12:05:22;;;;;;;;;;;;;;;20.04;77.58;99461.97;7402984;19;1350;-65
2022/11/18 12:07:53;;;;;;;;;;;;;;;20.00;78.36;99460.63;7402734;19;1356;-68
2022/11/18 12:10:30;;;;;;;;;;;;;;;20.02;78.05;99455.09;7403388;19;1319;-65
2022/11/18 12:13:07;;;;;;;;;;;;;;;20.00;78.35;99451.75;7403419;19;1401;-66
2022/11/18 12:15:46;;;;;;;;;;;;;;;20.04;77.72;99463.81;7402342;19;1453;-65
2022/11/18 12:18:21;;;;;;;;;;;;;;;19.94;78.82;99465.88;7401017;19;1329;-66
2022/11/18 12:20:51;;;;;;;;;;;;;;;19.82;77.63;99439.41;7402197;19;1619;-65
2022/11/18 12:23:20;;;;;;;;;;;;;;;19.73;77.97;99440.44;7396686;19;1838;-65
2022/11/18 12:25:59;;;;;;;;;;;;;;;19.69;78.09;99439.09;7400670;19;1641;-65
2022/11/18 12:28:30;;;;;;;;;;;;;;;19.62;78.20;99424.72;7402126;19;1509;-64
2022/11/18 12:31:13;;;;;;;;;;;;;;;19.61;78.66;99428.38;7401926;19;1601;-63
2022/11/18 12:33:44;;;;;;;;;;;;;;;19.56;78.64;99430.75;7404378;19;1609;-64
2022/11/18 12:36:25;;;;;;;;;;;;;;;19.52;78.87;99442.81;7402276;19;1522;-64
2022/11/18 12:38:54;;;;;;;;;;;;;;;19.48;78.30;99436.97;7403115;19;1665;-64
2022/11/18 12:44:24;;;;;;;;;;;;;;;19.49;77.82;99438.63;7401521;19;1408;-64
2022/11/18 12:46:53;;;;;;;;;;;;;;;19.47;77.93;99433.44;7403929;19;1504;-64
2022/11/18 12:49:36;;;;;;;;;;;;;;;19.47;78.23;99435.28;7403283;19;1627;-64
2022/11/18 12:52:06;;;;;;;;;;;;;;;19.46;78.01;99434.47;7403214;19;1384;-64
2022/11/18 12:54:36;;;;;;;;;;;;;;;19.45;78.16;99410.50;7406264;19;1671;-64
2022/11/18 12:57:06;;;;;;;;;;;;;;;19.43;78.03;99402.63;7410250;19;1584;-61
2022/11/18 12:59:38;;;;;;;;;;;;;;;19.43;77.90;99407.97;7410659;19;1674;-62
2022/11/18 13:02:22;;;;;;;;;;;;;;;19.41;78.11;99411.84;7408298;19;1866;-62
2022/11/18 13:05:05;;;;;;;;;;;;;;;19.36;78.48;99401.66;7410311;19;1551;-62
2022/11/18 13:10:23;;;;;;;;;;;;;;;19.36;77.95;99390.91;7411479;19;1630;-64
2022/11/18 13:12:52;;;;;;;;;;;;;;;19.31;78.02;99387.91;7406254;19;1515;-62
2022/11/18 13:18:08;;;;;;;;;;;;;;;19.29;78.22;99381.88;7410006;19;1432;-62
2022/11/18 13:20:37;;;;;;;;;;;;;;;19.25;78.28;99394.78;7410780;19;1622;-64
2022/11/18 13:25:47;;;;;;;;;;;;;;;19.27;78.22;99381.22;7411585;19;1538;-65
2022/11/18 13:28:24;;;;;;;;;;;;;;;19.22;77.77;99395.13;7409541;19;1641;-65
2022/11/18 13:30:58;;;;;;;;;;;;;;;19.23;78.11;99393.28;7407007;19;1568;-65
2022/11/18 13:33:27;;;;;;;;;;;;;;;19.25;77.68;99405.50;7410446;19;1575;-64
2022/11/18 13:35:55;;;;;;;;;;;;;;;19.22;77.90;99378.22;7407965;19;1535;-64
2022/11/18 13:38:24;;;;;;;;;;;;;;;19.19;77.93;99379.38;7408169;19;1749;-64
2022/11/18 13:41:13;;;;;;;;;;;;;;;19.22;77.92;99388.94;7407566;19;1571;-62
2022/11/18 13:43:41;;;;;;;;;;;;;;;19.19;77.62;99381.25;7406791;19;1850;-62